Time;durP1;ratioP1;P1;durP2;ratioP2;P2;SDS_P1;SDS_P2;PMS_P1;PMS_P2;Temp;Humidity;BMP_temperature;BMP_pressure;BME280_temperature;BME280_humidity;BME280_pressure;Samples;Min_cycle;Max_cycle;Signal;HPM_P1;HPM_P2
2022/01/08 00:01:11;;;;;;;;;0.00;0.00;14.40;99.90;;;;;;5012251;28;10532;-54
2022/01/08 00:03:45;;;;;;;;;0.00;0.00;14.50;99.90;;;;;;5001022;28;10762;-55
2022/01/08 00:06:15;;;;;;;;;0.00;0.00;14.50;99.90;;;;;;5011360;28;10762;-54
2022/01/08 00:08:51;;;;;;;;;0.00;0.00;14.50;99.90;;;;;;4987387;28;10698;-52
2022/01/08 00:11:26;;;;;;;;;0.00;0.00;14.50;99.90;;;;;;5012079;28;10569;-54
2022/01/08 00:13:56;;;;;;;;;0.00;0.00;14.50;99.90;;;;;;5020159;28;10615;-50
2022/01/08 00:16:27;;;;;;;;;0.00;0.00;14.50;99.90;;;;;;5013784;28;10637;-53
2022/01/08 00:18:58;;;;;;;;;0.00;0.00;14.50;99.90;;;;;;5016651;28;10578;-52
2022/01/08 00:21:30;;;;;;;;;0.00;0.00;14.50;99.90;;;;;;5009428;28;10469;-53
2022/01/08 00:24:02;;;;;;;;;1.50;0.50;14.50;99.90;;;;;;5008970;28;10618;-54
2022/01/08 00:26:33;;;;;;;;;0.00;0.00;14.50;99.90;;;;;;5010205;28;10879;-52
2022/01/08 00:29:04;;;;;;;;;0.00;0.00;14.50;99.90;;;;;;4996549;28;11635;-53
2022/01/08 00:31:35;;;;;;;;;0.00;0.00;14.50;99.90;;;;;;4995777;28;10902;-53
2022/01/08 00:34:06;;;;;;;;;1.50;0.00;14.40;99.90;;;;;;4994717;28;11662;-55
2022/01/08 00:36:37;;;;;;;;;0.00;0.00;14.50;99.90;;;;;;4996508;28;11528;-54
2022/01/08 00:39:07;;;;;;;;;1.00;1.00;14.50;99.90;;;;;;5011269;28;10523;-50
2022/01/08 00:41:40;;;;;;;;;0.00;0.00;14.50;99.90;;;;;;4997750;28;10762;-52
2022/01/08 00:44:10;;;;;;;;;0.00;0.00;14.40;99.90;;;;;;5013985;28;10746;-54
2022/01/08 00:46:45;;;;;;;;;0.00;0.00;14.40;99.90;;;;;;5016551;28;10687;-51
2022/01/08 00:49:15;;;;;;;;;0.00;0.00;14.50;99.90;;;;;;5000451;28;10540;-54
2022/01/08 00:51:46;;;;;;;;;0.00;0.00;14.40;99.90;;;;;;5010220;28;10874;-55
2022/01/08 00:54:17;;;;;;;;;0.00;0.00;14.40;99.90;;;;;;5011200;28;10904;-51
2022/01/08 00:56:48;;;;;;;;;0.50;0.50;14.40;99.90;;;;;;5015279;28;10808;-54
2022/01/08 00:59:19;;;;;;;;;0.00;0.00;14.40;99.90;;;;;;5014133;28;10805;-53
2022/01/08 01:01:50;;;;;;;;;0.00;0.00;14.40;99.90;;;;;;4996173;28;11057;-54
2022/01/08 01:04:20;;;;;;;;;0.00;0.00;14.40;99.90;;;;;;5014348;28;10990;-53
2022/01/08 01:06:51;;;;;;;;;0.00;0.00;14.40;99.90;;;;;;4980743;28;10979;-53
2022/01/08 01:09:24;;;;;;;;;0.00;0.00;14.40;99.90;;;;;;5011711;28;10864;-54
2022/01/08 01:11:57;;;;;;;;;1.00;1.00;14.30;99.90;;;;;;5013841;28;10851;-53
2022/01/08 01:14:28;;;;;;;;;0.00;0.00;14.30;99.90;;;;;;5013569;28;10815;-51
2022/01/08 01:16:58;;;;;;;;;1.25;0.00;14.30;99.90;;;;;;5013923;28;11880;-53
2022/01/08 01:19:30;;;;;;;;;0.00;0.00;14.30;99.90;;;;;;5001883;28;10906;-53
2022/01/08 01:22:00;;;;;;;;;0.75;0.75;14.30;99.90;;;;;;4995228;28;11057;-54
2022/01/08 01:24:33;;;;;;;;;0.00;0.00;14.30;99.90;;;;;;5009983;28;10926;-55
2022/01/08 01:29:57;;;;;;;;;0.00;0.00;14.20;99.90;;;;;;5014153;28;10997;-53
2022/01/08 01:47:02;;;;;;;;;1.00;1.00;14.10;99.90;;;;;;5011406;28;11057;-52
2022/01/08 01:49:36;;;;;;;;;0.75;0.75;14.10;99.90;;;;;;5013706;28;11461;-52
2022/01/08 01:52:10;;;;;;;;;1.50;1.00;14.10;99.90;;;;;;4978419;28;11293;-54
2022/01/08 01:54:45;;;;;;;;;0.00;0.00;14.00;99.90;;;;;;5005005;28;11269;-55
2022/01/08 01:57:17;;;;;;;;;0.50;0.50;14.00;99.90;;;;;;5013448;28;11300;-52
2022/01/08 01:59:50;;;;;;;;;2.00;2.00;14.00;99.90;;;;;;4996407;28;11478;-55
2022/01/08 02:02:25;;;;;;;;;0.00;0.00;13.90;99.90;;;;;;4993010;28;11603;-52
2022/01/08 02:04:57;;;;;;;;;0.75;0.00;14.00;99.90;;;;;;4990473;28;11141;-52
2022/01/08 02:07:28;;;;;;;;;0.75;0.75;13.90;99.90;;;;;;4997452;28;11133;-53
2022/01/08 02:09:59;;;;;;;;;0.75;0.75;13.90;99.90;;;;;;4996023;28;11120;-55
2022/01/08 02:12:33;;;;;;;;;1.00;1.00;13.90;99.90;;;;;;5012748;28;10955;-53
2022/01/08 02:15:07;;;;;;;;;1.50;1.50;13.90;99.90;;;;;;5012733;28;12210;-51
2022/01/08 02:17:38;;;;;;;;;2.00;1.00;13.90;99.90;;;;;;5016860;28;11136;-52
2022/01/08 02:20:10;;;;;;;;;3.25;3.00;13.80;99.90;;;;;;5019088;28;11927;-52
2022/01/08 02:22:45;;;;;;;;;3.00;2.00;13.80;99.90;;;;;;5011321;28;11394;-54
2022/01/08 02:25:21;;;;;;;;;1.00;1.00;13.80;99.90;;;;;;5019426;28;11614;-53
2022/01/08 02:27:52;;;;;;;;;1.00;1.00;13.80;99.90;;;;;;5017777;28;11112;-53
2022/01/08 02:30:24;;;;;;;;;0.75;0.75;13.80;99.90;;;;;;5015703;28;11459;-58
2022/01/08 02:32:55;;;;;;;;;1.00;1.00;13.80;99.90;;;;;;5017158;28;11437;-51
2022/01/08 02:35:27;;;;;;;;;1.00;1.00;13.80;99.90;;;;;;4995876;28;11280;-53
2022/01/08 02:37:57;;;;;;;;;1.50;0.75;13.70;99.90;;;;;;5004426;28;10929;-50
2022/01/08 02:40:30;;;;;;;;;1.00;1.00;13.70;99.90;;;;;;5016572;28;11468;-49
2022/01/08 02:43:04;;;;;;;;;2.50;2.50;13.70;99.90;;;;;;5000796;28;11424;-52
2022/01/08 02:45:35;;;;;;;;;3.25;3.25;13.60;99.90;;;;;;5014524;28;11442;-53
2022/01/08 02:48:05;;;;;;;;;2.00;2.00;13.70;99.90;;;;;;5003934;28;11431;-54
2022/01/08 02:50:37;;;;;;;;;1.75;1.75;13.70;99.90;;;;;;5018315;28;11966;-51
2022/01/08 02:53:08;;;;;;;;;2.75;2.75;13.60;99.90;;;;;;5019389;28;11670;-50
2022/01/08 02:55:48;;;;;;;;;2.75;2.75;13.60;99.90;;;;;;4998829;28;11421;-53
2022/01/08 02:58:18;;;;;;;;;3.25;3.25;13.60;99.90;;;;;;5016215;28;11433;-53
2022/01/08 03:00:49;;;;;;;;;2.00;2.00;13.60;99.90;;;;;;4996258;28;11464;-52
2022/01/08 03:03:20;;;;;;;;;2.00;1.00;13.60;99.90;;;;;;5016246;28;11456;-53
2022/01/08 03:05:53;;;;;;;;;3.75;3.75;13.50;99.90;;;;;;5015122;28;11443;-51
2022/01/08 03:08:26;;;;;;;;;4.00;4.00;13.50;99.90;;;;;;5000230;28;11485;-51
2022/01/08 03:10:57;;;;;;;;;3.00;2.50;13.50;99.90;;;;;;5012337;28;11431;-53
2022/01/08 03:13:27;;;;;;;;;2.75;2.75;13.50;99.90;;;;;;5003862;28;11507;-52
2022/01/08 03:15:58;;;;;;;;;1.00;1.00;13.50;99.90;;;;;;4999291;28;11454;-51
2022/01/08 03:18:28;;;;;;;;;1.75;1.75;13.50;99.90;;;;;;5017291;28;11536;-52
2022/01/08 03:21:02;;;;;;;;;2.00;2.00;13.50;99.90;;;;;;5020152;28;11166;-51
2022/01/08 03:23:42;;;;;;;;;3.50;3.25;13.50;99.90;;;;;;5016799;28;11485;-54
2022/01/08 03:26:14;;;;;;;;;8.00;6.75;13.50;99.90;;;;;;5010133;28;12178;-55
2022/01/08 03:28:47;;;;;;;;;7.00;7.00;13.50;99.90;;;;;;5014699;28;11445;-53
2022/01/08 03:31:18;;;;;;;;;1.00;1.00;13.50;99.90;;;;;;4998354;28;11427;-52
2022/01/08 03:33:51;;;;;;;;;5.00;4.00;13.50;99.90;;;;;;5016240;28;11462;-53
2022/01/08 03:36:23;;;;;;;;;3.00;3.00;13.50;99.90;;;;;;5013283;28;11486;-50
2022/01/08 03:38:55;;;;;;;;;2.00;2.00;13.50;99.90;;;;;;5016064;28;11419;-51
2022/01/08 03:41:30;;;;;;;;;2.00;2.00;13.40;99.90;;;;;;5014456;28;11440;-55
2022/01/08 03:44:00;;;;;;;;;3.25;2.75;13.40;99.90;;;;;;5015968;28;11448;-52
2022/01/08 03:46:35;;;;;;;;;2.00;2.00;13.40;99.90;;;;;;5013411;28;11469;-51
2022/01/08 03:49:25;;;;;;;;;1.50;1.50;13.50;99.90;;;;;;5015621;28;11417;-52
2022/01/08 03:51:57;;;;;;;;;1.75;1.75;13.40;99.90;;;;;;5018000;28;11451;-54
2022/01/08 03:54:28;;;;;;;;;2.00;2.00;13.40;99.90;;;;;;5001153;28;11612;-49
2022/01/08 03:56:59;;;;;;;;;1.00;1.00;13.40;99.90;;;;;;4998016;28;11476;-53
2022/01/08 03:59:29;;;;;;;;;5.00;5.00;13.40;99.90;;;;;;5000023;28;11421;-51
2022/01/08 04:02:00;;;;;;;;;4.00;4.00;13.40;99.90;;;;;;5015278;28;12349;-51
2022/01/08 04:04:31;;;;;;;;;2.00;2.00;13.40;99.90;;;;;;5000345;28;11498;-50
2022/01/08 04:07:02;;;;;;;;;2.00;1.00;13.40;99.90;;;;;;5018862;28;11437;-53
2022/01/08 04:09:33;;;;;;;;;1.25;1.25;13.40;99.90;;;;;;4998354;28;11449;-52
2022/01/08 04:12:06;;;;;;;;;2.50;2.00;13.40;99.90;;;;;;5016081;28;11247;-51
2022/01/08 04:14:51;;;;;;;;;2.00;2.00;13.40;99.90;;;;;;5015572;28;11429;-50
2022/01/08 04:17:23;;;;;;;;;1.00;1.00;13.40;99.90;;;;;;5016503;28;11579;-52
2022/01/08 04:19:55;;;;;;;;;1.25;1.25;13.40;99.90;;;;;;5016974;28;11446;-53
2022/01/08 04:22:28;;;;;;;;;2.00;1.75;13.40;99.90;;;;;;5015832;28;12220;-51
2022/01/08 04:25:00;;;;;;;;;0.75;0.75;13.40;99.90;;;;;;5002495;28;11434;-53
2022/01/08 04:27:31;;;;;;;;;1.25;1.00;13.40;99.90;;;;;;5015060;28;11432;-52
2022/01/08 04:30:02;;;;;;;;;0.00;0.00;13.40;99.90;;;;;;4998063;28;11515;-52
2022/01/08 04:32:33;;;;;;;;;2.25;2.25;13.40;99.90;;;;;;5014752;28;11415;-54
2022/01/08 04:35:04;;;;;;;;;6.50;4.50;13.40;99.90;;;;;;5016493;28;11568;-50
2022/01/08 04:37:35;;;;;;;;;8.00;8.00;13.40;99.90;;;;;;5018451;28;12161;-50
2022/01/08 04:40:06;;;;;;;;;12.75;11.50;13.30;99.90;;;;;;5015468;28;11432;-55
2022/01/08 04:42:37;;;;;;;;;15.00;15.00;13.30;99.90;;;;;;5000684;28;11440;-50
2022/01/08 04:45:09;;;;;;;;;10.00;10.00;13.30;99.90;;;;;;4997899;28;11551;-52
2022/01/08 04:47:41;;;;;;;;;11.25;11.25;13.30;99.90;;;;;;4999773;28;11487;-51
2022/01/08 04:50:16;;;;;;;;;10.75;9.25;13.30;99.90;;;;;;5014252;28;11493;-51
2022/01/08 04:52:46;;;;;;;;;9.00;9.00;13.30;99.90;;;;;;5017454;28;11609;-51
2022/01/08 04:55:20;;;;;;;;;7.00;7.00;13.30;99.90;;;;;;5013870;28;11486;-52
2022/01/08 04:57:52;;;;;;;;;6.75;6.50;13.20;99.90;;;;;;5015207;28;11414;-51
2022/01/08 05:00:23;;;;;;;;;6.50;6.50;13.20;99.90;;;;;;5014999;28;11430;-50
2022/01/08 05:02:54;;;;;;;;;6.75;6.75;13.20;99.90;;;;;;5015326;28;11384;-52
2022/01/08 05:05:27;;;;;;;;;5.25;5.00;13.20;99.90;;;;;;5018290;28;11462;-50
2022/01/08 05:07:58;;;;;;;;;5.00;5.00;13.20;99.90;;;;;;5012929;28;11443;-52
2022/01/08 05:10:33;;;;;;;;;6.75;6.75;13.20;99.90;;;;;;4997332;28;11513;-51
2022/01/08 05:13:05;;;;;;;;;5.00;5.00;13.20;99.90;;;;;;4978716;28;11491;-48
2022/01/08 05:15:36;;;;;;;;;6.25;6.00;13.20;99.90;;;;;;4998642;28;11470;-51
2022/01/08 05:18:09;;;;;;;;;6.25;6.25;13.20;99.90;;;;;;5013326;28;11419;-54
2022/01/08 05:20:44;;;;;;;;;5.00;4.00;13.10;99.90;;;;;;4995295;28;11417;-52
2022/01/08 05:23:17;;;;;;;;;6.75;4.25;13.10;99.90;;;;;;5014887;28;11443;-52
2022/01/08 05:25:48;;;;;;;;;3.00;3.00;13.10;99.90;;;;;;5000326;28;11480;-53
2022/01/08 05:28:19;;;;;;;;;2.00;2.00;13.10;99.90;;;;;;5012200;28;11469;-51
2022/01/08 05:30:50;;;;;;;;;3.50;2.25;13.20;99.90;;;;;;5018973;28;11432;-52
2022/01/08 05:33:20;;;;;;;;;2.00;2.00;13.10;99.90;;;;;;4999710;28;11468;-52
2022/01/08 05:35:50;;;;;;;;;2.00;2.00;13.10;99.90;;;;;;4998334;28;11491;-53
2022/01/08 05:38:22;;;;;;;;;1.75;1.75;13.10;99.90;;;;;;4996991;28;11447;-52
2022/01/08 05:40:55;;;;;;;;;2.00;2.00;13.10;99.90;;;;;;5014443;28;11438;-49
2022/01/08 05:43:26;;;;;;;;;1.00;1.00;13.10;99.90;;;;;;5010753;28;11508;-53
2022/01/08 05:45:58;;;;;;;;;2.00;0.75;13.10;99.90;;;;;;4999942;28;11399;-50
2022/01/08 05:48:32;;;;;;;;;0.75;0.75;13.10;99.90;;;;;;4983572;28;11461;-54
2022/01/08 05:51:02;;;;;;;;;1.25;1.25;13.10;99.90;;;;;;4982080;28;11238;-52
2022/01/08 05:53:33;;;;;;;;;2.00;2.00;13.10;99.90;;;;;;5017655;28;11437;-52
2022/01/08 05:56:06;;;;;;;;;1.00;1.00;13.10;99.90;;;;;;5016039;28;11410;-54
2022/01/08 05:58:38;;;;;;;;;2.00;2.00;13.10;99.90;;;;;;5004576;28;11394;-53
2022/01/08 06:01:10;;;;;;;;;2.00;2.00;13.10;99.90;;;;;;5013894;28;11427;-51
2022/01/08 06:03:44;;;;;;;;;1.00;1.00;13.10;99.90;;;;;;4970175;28;11435;-53
2022/01/08 06:06:15;;;;;;;;;0.00;0.00;13.00;99.90;;;;;;4982977;28;11467;-53
2022/01/08 06:08:46;;;;;;;;;0.00;0.00;13.00;99.90;;;;;;5021369;28;11400;-50
2022/01/08 06:11:17;;;;;;;;;0.00;0.00;13.00;99.90;;;;;;5012900;28;12154;-53
2022/01/08 06:13:49;;;;;;;;;1.00;1.00;13.10;99.90;;;;;;5014967;28;11424;-54
2022/01/08 06:16:20;;;;;;;;;1.75;1.75;13.10;99.90;;;;;;5017875;28;11598;-53
2022/01/08 06:18:53;;;;;;;;;1.25;1.00;13.10;99.90;;;;;;5020545;28;11456;-53
2022/01/08 06:21:23;;;;;;;;;0.00;0.00;13.10;99.90;;;;;;5016094;28;11082;-52
2022/01/08 06:23:55;;;;;;;;;0.00;0.00;13.10;99.90;;;;;;5019387;28;11436;-52
2022/01/08 06:26:29;;;;;;;;;0.00;0.00;13.10;99.90;;;;;;5000850;28;11087;-52
2022/01/08 06:29:00;;;;;;;;;0.00;0.00;13.00;99.90;;;;;;5017726;28;11430;-54
2022/01/08 06:31:32;;;;;;;;;1.00;1.00;13.10;99.90;;;;;;5006648;28;11278;-50
2022/01/08 06:34:03;;;;;;;;;0.00;0.00;13.10;99.90;;;;;;4996738;28;11419;-52
2022/01/08 06:36:35;;;;;;;;;1.50;0.00;13.00;99.90;;;;;;5017010;28;11750;-53
2022/01/08 06:39:07;;;;;;;;;0.00;0.00;13.00;99.90;;;;;;5017186;28;11185;-53
2022/01/08 06:41:38;;;;;;;;;0.25;0.25;13.00;99.90;;;;;;5000280;28;11429;-53
2022/01/08 06:44:08;;;;;;;;;0.00;0.00;13.00;99.90;;;;;;5015493;28;11412;-50
2022/01/08 06:46:41;;;;;;;;;0.25;0.00;13.00;99.90;;;;;;4997825;28;11453;-52
2022/01/08 06:49:14;;;;;;;;;0.00;0.00;13.00;99.90;;;;;;5015635;28;11449;-53
2022/01/08 06:51:44;;;;;;;;;0.25;0.25;13.00;99.90;;;;;;5003059;28;11257;-53
2022/01/08 06:54:15;;;;;;;;;0.00;0.00;13.00;99.90;;;;;;5017580;28;11458;-52
2022/01/08 06:56:45;;;;;;;;;1.00;1.00;13.00;99.90;;;;;;4999329;28;11127;-54
2022/01/08 06:59:16;;;;;;;;;1.00;1.00;13.00;99.90;;;;;;5019311;28;11436;-53
2022/01/08 07:01:47;;;;;;;;;0.00;0.00;13.00;99.90;;;;;;4989320;28;11201;-53
2022/01/08 07:04:18;;;;;;;;;0.00;0.00;13.00;99.90;;;;;;5017800;28;11456;-52
2022/01/08 07:06:50;;;;;;;;;1.00;1.00;13.00;99.90;;;;;;4996149;28;11223;-55
2022/01/08 07:09:20;;;;;;;;;0.00;0.00;13.00;99.90;;;;;;5018140;28;11428;-54
2022/01/08 07:11:51;;;;;;;;;0.00;0.00;13.00;99.90;;;;;;5004744;28;11438;-54
2022/01/08 07:14:21;;;;;;;;;0.75;0.75;13.00;99.90;;;;;;5014900;28;11460;-54
2022/01/08 07:16:54;;;;;;;;;0.00;0.00;13.00;99.90;;;;;;4999711;28;11419;-52
2022/01/08 07:19:24;;;;;;;;;1.00;1.00;13.00;99.90;;;;;;4970183;28;11399;-53
2022/01/08 07:21:55;;;;;;;;;0.00;0.00;13.00;99.90;;;;;;4981864;28;11447;-55
2022/01/08 07:24:28;;;;;;;;;0.00;0.00;13.00;99.90;;;;;;4987423;28;11241;-52
2022/01/08 07:27:02;;;;;;;;;1.00;1.00;13.00;99.90;;;;;;4997580;28;11147;-53
2022/01/08 07:29:32;;;;;;;;;0.00;0.00;13.00;99.90;;;;;;5019785;28;12203;-54
2022/01/08 07:32:04;;;;;;;;;0.00;0.00;13.00;99.90;;;;;;4978886;28;11685;-53
2022/01/08 07:34:34;;;;;;;;;0.00;0.00;13.00;99.90;;;;;;5017041;28;11456;-54
2022/01/08 07:37:06;;;;;;;;;1.00;1.00;13.00;99.90;;;;;;5015290;28;11419;-52
2022/01/08 07:39:37;;;;;;;;;0.00;0.00;13.00;99.90;;;;;;5017166;28;12209;-53
2022/01/08 07:42:08;;;;;;;;;1.00;1.00;13.00;99.90;;;;;;4998518;28;11392;-53
2022/01/08 07:44:42;;;;;;;;;0.75;0.75;13.00;99.90;;;;;;5018379;28;11428;-56
2022/01/08 07:47:14;;;;;;;;;0.00;0.00;13.00;99.90;;;;;;4984087;28;11439;-54
2022/01/08 07:49:44;;;;;;;;;0.00;0.00;12.90;99.90;;;;;;4983246;28;11447;-54
2022/01/08 07:52:14;;;;;;;;;0.00;0.00;12.90;99.90;;;;;;5002182;28;11452;-53
2022/01/08 07:54:44;;;;;;;;;1.00;1.00;12.90;99.90;;;;;;4999749;28;11404;-51
2022/01/08 07:57:15;;;;;;;;;0.00;0.00;12.90;99.90;;;;;;5019117;28;11460;-52
2022/01/08 07:59:48;;;;;;;;;4.00;1.50;12.90;99.90;;;;;;5017392;28;11414;-54
2022/01/08 08:02:20;;;;;;;;;1.00;1.00;12.80;99.90;;;;;;5013201;28;11432;-54
2022/01/08 08:04:53;;;;;;;;;1.00;1.00;12.80;99.90;;;;;;4980396;28;12195;-52
2022/01/08 08:07:37;;;;;;;;;2.00;2.00;12.80;99.90;;;;;;4998624;28;11437;-53
2022/01/08 08:10:17;;;;;;;;;1.00;1.00;12.80;99.90;;;;;;5016503;28;12129;-53
2022/01/08 08:12:49;;;;;;;;;0.00;0.00;12.80;99.90;;;;;;5012149;28;11434;-52
2022/01/08 08:15:20;;;;;;;;;1.00;0.00;12.80;99.90;;;;;;5016930;28;11412;-53
2022/01/08 08:17:53;;;;;;;;;0.00;0.00;12.70;99.90;;;;;;5017421;28;11420;-53
2022/01/08 08:20:24;;;;;;;;;0.00;0.00;12.70;99.90;;;;;;4995512;28;11455;-54
2022/01/08 08:22:54;;;;;;;;;2.00;0.75;12.70;99.90;;;;;;5016995;28;12259;-51
2022/01/08 08:25:25;;;;;;;;;0.00;0.00;12.70;99.90;;;;;;5014274;28;11462;-52
2022/01/08 08:27:56;;;;;;;;;1.00;1.00;12.70;99.90;;;;;;5015599;28;11444;-52
2022/01/08 08:30:27;;;;;;;;;0.50;0.50;12.70;99.90;;;;;;5014182;28;11491;-52
2022/01/08 08:32:58;;;;;;;;;0.00;0.00;12.70;99.90;;;;;;5018756;28;11435;-53
2022/01/08 08:35:29;;;;;;;;;0.50;0.50;12.60;99.90;;;;;;4977955;28;11439;-51
2022/01/08 08:38:00;;;;;;;;;0.00;0.00;12.60;99.90;;;;;;5003892;28;11520;-49
2022/01/08 08:40:31;;;;;;;;;1.50;0.00;12.60;99.90;;;;;;5014004;28;11622;-53
2022/01/08 08:43:02;;;;;;;;;0.00;0.00;12.60;99.90;;;;;;5013697;28;11411;-55
2022/01/08 08:45:32;;;;;;;;;1.00;1.00;12.60;99.90;;;;;;4984575;28;11441;-53
2022/01/08 08:48:03;;;;;;;;;2.00;1.00;12.50;99.90;;;;;;5017138;28;12288;-51
2022/01/08 08:50:34;;;;;;;;;0.00;0.00;12.50;99.90;;;;;;5016080;28;11444;-53
2022/01/08 08:53:06;;;;;;;;;0.00;0.00;12.50;99.90;;;;;;4998440;28;11437;-53
2022/01/08 08:55:38;;;;;;;;;1.00;1.00;12.50;99.90;;;;;;5011136;28;11732;-53
2022/01/08 08:58:10;;;;;;;;;0.00;0.00;12.50;99.90;;;;;;4998253;28;11449;-55
2022/01/08 09:00:41;;;;;;;;;0.00;0.00;12.50;99.90;;;;;;4999004;28;11456;-54
2022/01/08 09:03:13;;;;;;;;;0.00;0.00;12.40;99.90;;;;;;4980824;28;11438;-53
2022/01/08 09:05:45;;;;;;;;;2.25;2.25;12.40;99.90;;;;;;4979938;28;12028;-53
2022/01/08 09:08:17;;;;;;;;;0.00;0.00;12.30;99.90;;;;;;5018536;28;11480;-54
2022/01/08 09:10:48;;;;;;;;;0.00;0.00;12.30;99.90;;;;;;5012255;28;11474;-55
2022/01/08 09:13:20;;;;;;;;;0.00;0.00;12.30;99.90;;;;;;5012731;28;11465;-51
2022/01/08 09:15:55;;;;;;;;;1.00;1.00;12.30;99.90;;;;;;5013649;28;11437;-50
2022/01/08 09:18:25;;;;;;;;;0.00;0.00;12.30;99.90;;;;;;5000053;28;11470;-53
2022/01/08 09:20:55;;;;;;;;;0.00;0.00;12.30;99.90;;;;;;5014687;28;11475;-53
2022/01/08 09:23:26;;;;;;;;;0.00;0.00;12.30;99.90;;;;;;5014157;28;11455;-50
2022/01/08 09:25:57;;;;;;;;;1.00;1.00;12.30;99.90;;;;;;5016892;28;11648;-52
2022/01/08 09:28:29;;;;;;;;;0.00;0.00;12.20;99.90;;;;;;5000446;28;11544;-53
2022/01/08 09:31:03;;;;;;;;;0.75;0.75;12.30;99.90;;;;;;5001632;28;11478;-51
2022/01/08 09:33:33;;;;;;;;;2.00;1.00;12.30;99.90;;;;;;5006903;28;11524;-53
2022/01/08 09:36:06;;;;;;;;;0.00;0.00;12.20;99.90;;;;;;5018170;28;11566;-53
2022/01/08 09:38:37;;;;;;;;;0.00;0.00;12.20;99.90;;;;;;5017806;28;11516;-53
2022/01/08 09:41:08;;;;;;;;;0.25;0.25;12.20;99.90;;;;;;4988946;28;11485;-51
2022/01/08 09:43:41;;;;;;;;;0.50;0.50;12.20;99.90;;;;;;5020118;28;11621;-52
2022/01/08 09:46:15;;;;;;;;;0.75;0.75;12.20;99.90;;;;;;4987060;28;11030;-52
2022/01/08 09:48:46;;;;;;;;;0.00;0.00;12.10;99.90;;;;;;5013445;28;11636;-54
2022/01/08 09:51:18;;;;;;;;;0.75;0.75;12.10;99.90;;;;;;5020456;28;11630;-52
2022/01/08 09:53:49;;;;;;;;;1.00;1.00;12.10;99.90;;;;;;5001193;28;11512;-52
2022/01/08 09:56:22;;;;;;;;;0.00;0.00;12.10;99.90;;;;;;5018580;28;11511;-50
2022/01/08 09:58:55;;;;;;;;;0.00;0.00;12.10;99.90;;;;;;5018733;28;11507;-53
2022/01/08 10:01:34;;;;;;;;;2.00;2.00;12.10;99.90;;;;;;5003862;28;11509;-53
2022/01/08 10:04:06;;;;;;;;;1.00;1.00;12.10;99.90;;;;;;5003237;28;11515;-51
2022/01/08 10:06:38;;;;;;;;;1.00;1.00;12.10;99.90;;;;;;5021981;28;11481;-52
2022/01/08 10:09:10;;;;;;;;;1.50;0.00;12.10;99.90;;;;;;4999330;28;11517;-54
2022/01/08 10:11:49;;;;;;;;;0.00;0.00;12.10;99.90;;;;;;5018865;28;11475;-53
2022/01/08 10:14:39;;;;;;;;;0.00;0.00;12.10;99.90;;;;;;5017937;28;11539;-52
2022/01/08 10:17:15;;;;;;;;;0.00;0.00;12.10;99.90;;;;;;5022336;28;11416;-52
2022/01/08 10:19:45;;;;;;;;;1.00;1.00;12.10;99.90;;;;;;5017630;28;11493;-52
2022/01/08 10:22:19;;;;;;;;;0.00;0.00;12.10;99.90;;;;;;5018871;28;11487;-52
2022/01/08 10:25:10;;;;;;;;;2.75;1.00;12.10;99.90;;;;;;5017201;28;11479;-54
2022/01/08 10:27:41;;;;;;;;;2.00;1.00;12.10;99.90;;;;;;5019366;28;11493;-53
2022/01/08 10:30:25;;;;;;;;;0.00;0.00;12.10;99.90;;;;;;5016276;28;11542;-51
2022/01/08 10:32:58;;;;;;;;;0.00;0.00;12.00;99.90;;;;;;5016108;28;11426;-56
2022/01/08 10:35:48;;;;;;;;;0.00;0.00;12.10;99.90;;;;;;5016852;28;11406;-52
2022/01/08 10:38:20;;;;;;;;;1.50;1.50;12.10;99.90;;;;;;5017478;28;11572;-53
2022/01/08 10:40:51;;;;;;;;;1.00;1.00;12.10;99.90;;;;;;5012707;28;11419;-53
2022/01/08 10:43:33;;;;;;;;;0.00;0.00;12.00;99.90;;;;;;5001690;28;11445;-54
2022/01/08 10:46:18;;;;;;;;;2.00;0.75;12.00;99.90;;;;;;4999226;28;12015;-52
2022/01/08 10:48:50;;;;;;;;;1.00;1.00;12.00;99.90;;;;;;5016318;28;12263;-53
2022/01/08 10:51:24;;;;;;;;;0.75;0.75;12.00;99.90;;;;;;4987405;28;11468;-54
2022/01/08 10:54:11;;;;;;;;;0.00;0.00;12.00;99.90;;;;;;5017842;28;11459;-54
2022/01/08 10:56:46;;;;;;;;;1.25;1.00;12.00;99.90;;;;;;5000550;28;11449;-54
2022/01/08 10:59:25;;;;;;;;;1.00;1.00;12.00;99.90;;;;;;5015395;28;11430;-54
2022/01/08 11:02:03;;;;;;;;;2.00;2.00;12.00;99.90;;;;;;5016115;28;11482;-53
2022/01/08 11:04:36;;;;;;;;;1.00;1.00;12.00;99.90;;;;;;4996082;28;12707;-52
2022/01/08 11:07:21;;;;;;;;;1.00;1.00;12.00;99.90;;;;;;5011429;28;11436;-53
2022/01/08 11:10:07;;;;;;;;;0.75;0.75;12.00;99.90;;;;;;5017131;28;12218;-52
2022/01/08 11:12:42;;;;;;;;;1.00;1.00;12.00;99.90;;;;;;5012588;28;11410;-54
2022/01/08 11:17:56;;;;;;;;;1.00;1.00;12.00;99.90;;;;;;5011926;28;11598;-52
2022/01/08 11:20:47;;;;;;;;;0.75;0.75;12.00;99.90;;;;;;5015622;28;11419;-53
2022/01/08 11:23:23;;;;;;;;;0.00;0.00;12.00;99.90;;;;;;5015615;28;11622;-54
2022/01/08 11:25:59;;;;;;;;;0.75;0.75;12.00;99.90;;;;;;4998049;28;11559;-52
2022/01/08 11:28:37;;;;;;;;;0.00;0.00;12.00;99.90;;;;;;5012623;28;11429;-53
2022/01/08 11:31:11;;;;;;;;;1.25;1.25;12.00;99.90;;;;;;5018396;28;11434;-53
2022/01/08 11:33:49;;;;;;;;;2.00;0.00;12.00;99.90;;;;;;5018303;28;11398;-55
2022/01/08 11:36:20;;;;;;;;;0.00;0.00;12.00;99.90;;;;;;5016457;28;12205;-52
2022/01/08 11:38:56;;;;;;;;;0.00;0.00;12.00;99.90;;;;;;4998250;28;11511;-53
2022/01/08 11:41:28;;;;;;;;;0.50;0.50;12.00;99.90;;;;;;4999424;28;11514;-49
2022/01/08 11:44:02;;;;;;;;;1.00;1.00;12.00;99.90;;;;;;4998791;28;11430;-53
2022/01/08 11:46:35;;;;;;;;;0.50;0.50;12.00;99.90;;;;;;5012431;28;11405;-53
2022/01/08 11:49:07;;;;;;;;;1.75;1.75;12.00;99.90;;;;;;4994266;28;11472;-51
2022/01/08 11:51:39;;;;;;;;;0.00;0.00;12.00;99.90;;;;;;5017085;28;11423;-54
2022/01/08 11:54:13;;;;;;;;;0.50;0.50;12.00;99.90;;;;;;5001018;28;11508;-54
2022/01/08 11:56:43;;;;;;;;;0.00;0.00;12.00;99.90;;;;;;4996832;28;11416;-53
2022/01/08 11:59:19;;;;;;;;;0.00;0.00;12.00;99.90;;;;;;5001123;28;11467;-52
2022/01/08 12:02:10;;;;;;;;;1.50;0.00;12.00;99.90;;;;;;5016173;28;12024;-53
2022/01/08 12:04:44;;;;;;;;;0.00;0.00;12.00;99.90;;;;;;5017637;28;11444;-50
2022/01/08 12:07:26;;;;;;;;;1.50;1.50;12.00;99.90;;;;;;5002988;28;11556;-53
2022/01/08 12:10:16;;;;;;;;;0.00;0.00;12.00;99.90;;;;;;5016452;28;11432;-52
2022/01/08 12:12:55;;;;;;;;;0.00;0.00;12.00;99.90;;;;;;4982786;28;11465;-52
2022/01/08 12:15:45;;;;;;;;;1.00;1.00;12.00;99.90;;;;;;5014053;28;11459;-49
2022/01/08 12:18:21;;;;;;;;;0.00;0.00;12.00;99.90;;;;;;5020394;28;11448;-52
2022/01/08 12:20:57;;;;;;;;;0.00;0.00;12.00;99.90;;;;;;5016109;28;11432;-53
2022/01/08 12:23:34;;;;;;;;;0.50;0.50;12.00;99.90;;;;;;5016073;28;11445;-52
2022/01/08 12:26:22;;;;;;;;;0.00;0.00;12.00;99.90;;;;;;5008937;28;11541;-52
2022/01/08 12:29:00;;;;;;;;;0.00;0.00;12.00;99.90;;;;;;5017905;28;11847;-52
2022/01/08 12:31:42;;;;;;;;;0.00;0.00;12.00;99.90;;;;;;5015064;28;11592;-53
2022/01/08 12:34:29;;;;;;;;;0.75;0.75;12.00;99.90;;;;;;4992387;28;11681;-51
2022/01/08 12:37:10;;;;;;;;;1.50;0.00;12.00;99.90;;;;;;4996697;28;11454;-53
2022/01/08 12:39:50;;;;;;;;;1.00;1.00;12.00;99.90;;;;;;5014811;28;11446;-53
2022/01/08 12:42:20;;;;;;;;;0.00;0.00;12.00;99.90;;;;;;5014812;28;11423;-50
2022/01/08 12:45:11;;;;;;;;;0.00;0.00;12.00;99.90;;;;;;5010106;28;11432;-52
2022/01/08 12:47:53;;;;;;;;;0.50;0.50;12.00;99.90;;;;;;5011508;28;11478;-52
2022/01/08 12:50:32;;;;;;;;;0.00;0.00;12.00;99.90;;;;;;5013699;28;11432;-50
2022/01/08 12:53:24;;;;;;;;;0.00;0.00;12.00;99.90;;;;;;5016229;28;11409;-52
2022/01/08 12:55:55;;;;;;;;;1.00;1.00;12.00;99.90;;;;;;4996834;28;11449;-50
2022/01/08 12:58:35;;;;;;;;;0.00;0.00;12.00;99.90;;;;;;5010306;28;12341;-53
2022/01/08 13:01:23;;;;;;;;;0.25;0.25;12.00;99.90;;;;;;4995057;28;11522;-53
2022/01/08 13:03:56;;;;;;;;;0.00;0.00;12.00;99.90;;;;;;5012315;28;11410;-52
2022/01/08 13:06:33;;;;;;;;;0.00;0.00;12.00;99.90;;;;;;5016172;28;11560;-51
2022/01/08 13:09:07;;;;;;;;;1.00;1.00;12.00;99.90;;;;;;4993631;28;11462;-52
2022/01/08 13:11:42;;;;;;;;;2.50;1.00;12.00;99.90;;;;;;5011105;28;11498;-52
2022/01/08 13:14:19;;;;;;;;;0.75;0.75;12.00;99.90;;;;;;5013042;28;11513;-53
2022/01/08 13:16:54;;;;;;;;;1.00;1.00;12.00;99.90;;;;;;5014250;28;11439;-52
2022/01/08 13:19:31;;;;;;;;;1.25;1.25;12.00;99.90;;;;;;4978498;28;11612;-53
2022/01/08 13:22:07;;;;;;;;;1.00;1.00;12.00;99.90;;;;;;5016613;28;11431;-53
2022/01/08 13:24:46;;;;;;;;;1.00;1.00;12.00;99.90;;;;;;4997464;28;11436;-54
2022/01/08 13:27:20;;;;;;;;;1.00;1.00;12.00;99.90;;;;;;5010022;28;11480;-54
2022/01/08 13:29:54;;;;;;;;;1.75;1.75;12.00;99.90;;;;;;5014613;28;11493;-53
2022/01/08 13:32:25;;;;;;;;;1.00;1.00;12.10;99.90;;;;;;4995577;28;12211;-52
2022/01/08 13:35:00;;;;;;;;;2.00;2.00;12.00;99.90;;;;;;5011847;28;11411;-50
2022/01/08 13:37:32;;;;;;;;;1.75;1.75;12.00;99.90;;;;;;5008674;28;11411;-51